sensor_id;sensor_type;location;lat;lon;timestamp;pressure;altitude;pressure_sealevel;temperature;humidity
12471;BME280;36499;46.484;13.832;2023-02-13T00:00:20;95018.66;;;-1.26;75.09
12471;BME280;36499;46.484;13.832;2023-02-13T00:02:47;95026.41;;;-1.27;74.41
12471;BME280;36499;46.484;13.832;2023-02-13T00:05:14;95023.16;;;-1.43;75.42
12471;BME280;36499;46.484;13.832;2023-02-13T00:07:43;95010.81;;;-1.51;76.69
12471;BME280;36499;46.484;13.832;2023-02-13T00:10:10;95021.97;;;-1.52;76.92
12471;BME280;36499;46.484;13.832;2023-02-13T00:12:38;95018.59;;;-1.53;76.81
12471;BME280;36499;46.484;13.832;2023-02-13T00:15:07;95017.19;;;-1.44;77.28
12471;BME280;36499;46.484;13.832;2023-02-13T00:17:35;95012.63;;;-1.39;76.57
12471;BME280;36499;46.484;13.832;2023-02-13T00:20:03;95014.94;;;-1.34;76.11
12471;BME280;36499;46.484;13.832;2023-02-13T00:22:35;95019.22;;;-1.35;75.80
12471;BME280;36499;46.484;13.832;2023-02-13T00:25:06;95012.84;;;-1.42;75.79
12471;BME280;36499;46.484;13.832;2023-02-13T00:27:33;95012.91;;;-1.43;76.84
12471;BME280;36499;46.484;13.832;2023-02-13T00:30:00;95010.00;;;-1.37;75.52
12471;BME280;36499;46.484;13.832;2023-02-13T00:32:27;95012.09;;;-1.30;75.71
12471;BME280;36499;46.484;13.832;2023-02-13T00:34:55;95021.66;;;-1.19;75.84
12471;BME280;36499;46.484;13.832;2023-02-13T00:37:23;95028.16;;;-1.28;76.73
12471;BME280;36499;46.484;13.832;2023-02-13T00:39:50;95029.88;;;-1.28;75.97
12471;BME280;36499;46.484;13.832;2023-02-13T00:42:18;95027.06;;;-1.52;76.06
12471;BME280;36499;46.484;13.832;2023-02-13T00:44:48;95034.47;;;-1.48;77.19
12471;BME280;36499;46.484;13.832;2023-02-13T00:47:15;95036.03;;;-1.45;76.38
12471;BME280;36499;46.484;13.832;2023-02-13T00:49:42;95031.28;;;-1.51;76.97
12471;BME280;36499;46.484;13.832;2023-02-13T00:52:09;95040.88;;;-1.55;77.61
12471;BME280;36499;46.484;13.832;2023-02-13T00:54:36;95041.16;;;-1.45;76.99
12471;BME280;36499;46.484;13.832;2023-02-13T00:57:04;95046.97;;;-1.43;77.54
12471;BME280;36499;46.484;13.832;2023-02-13T00:59:32;95043.34;;;-1.39;76.67
12471;BME280;36499;46.484;13.832;2023-02-13T01:01:59;95047.44;;;-1.36;77.14
12471;BME280;36499;46.484;13.832;2023-02-13T01:04:26;95040.50;;;-1.34;76.93
12471;BME280;36499;46.484;13.832;2023-02-13T01:06:53;95046.97;;;-1.29;76.47
12471;BME280;36499;46.484;13.832;2023-02-13T01:09:20;95045.88;;;-1.39;76.00
12471;BME280;36499;46.484;13.832;2023-02-13T01:11:47;95042.97;;;-1.47;76.26
12471;BME280;36499;46.484;13.832;2023-02-13T01:14:14;95045.91;;;-1.53;75.94
12471;BME280;36499;46.484;13.832;2023-02-13T01:16:43;95047.81;;;-1.57;76.00
12471;BME280;36499;46.484;13.832;2023-02-13T01:19:10;95046.09;;;-1.56;75.83
12471;BME280;36499;46.484;13.832;2023-02-13T01:21:37;95039.34;;;-1.57;76.04
12471;BME280;36499;46.484;13.832;2023-02-13T01:24:05;95041.63;;;-1.53;76.46
12471;BME280;36499;46.484;13.832;2023-02-13T01:26:32;95040.41;;;-1.47;76.65
12471;BME280;36499;46.484;13.832;2023-02-13T01:28:59;95039.22;;;-1.41;76.85
12471;BME280;36499;46.484;13.832;2023-02-13T01:31:26;95037.28;;;-1.52;76.17
12471;BME280;36499;46.484;13.832;2023-02-13T01:33:57;95035.50;;;-1.64;76.35
12471;BME280;36499;46.484;13.832;2023-02-13T01:36:26;95034.03;;;-1.68;76.41
12471;BME280;36499;46.484;13.832;2023-02-13T01:38:55;95036.78;;;-1.71;76.74
12471;BME280;36499;46.484;13.832;2023-02-13T01:41:23;95031.47;;;-1.68;76.07
12471;BME280;36499;46.484;13.832;2023-02-13T01:43:53;95030.66;;;-1.69;76.46
12471;BME280;36499;46.484;13.832;2023-02-13T01:46:26;95029.84;;;-1.69;75.48
12471;BME280;36499;46.484;13.832;2023-02-13T01:49:03;95025.81;;;-1.73;76.09
12471;BME280;36499;46.484;13.832;2023-02-13T01:51:33;95022.53;;;-1.75;75.08
12471;BME280;36499;46.484;13.832;2023-02-13T01:54:06;95024.34;;;-1.77;75.82
12471;BME280;36499;46.484;13.832;2023-02-13T01:56:40;95021.06;;;-1.79;75.59
12471;BME280;36499;46.484;13.832;2023-02-13T01:59:13;95023.78;;;-1.82;76.17
12471;BME280;36499;46.484;13.832;2023-02-13T02:01:43;95023.22;;;-2.02;75.59
12471;BME280;36499;46.484;13.832;2023-02-13T02:04:17;95021.31;;;-2.12;76.22
12471;BME280;36499;46.484;13.832;2023-02-13T02:06:51;95021.94;;;-2.09;77.17
12471;BME280;36499;46.484;13.832;2023-02-13T02:09:37;95018.69;;;-2.11;77.28
12471;BME280;36499;46.484;13.832;2023-02-13T02:12:13;95019.94;;;-2.18;76.85
12471;BME280;36499;46.484;13.832;2023-02-13T02:14:44;95015.03;;;-2.21;77.46
12471;BME280;36499;46.484;13.832;2023-02-13T02:17:11;95013.06;;;-2.31;78.07
12471;BME280;36499;46.484;13.832;2023-02-13T02:19:49;95012.63;;;-2.24;77.43
12471;BME280;36499;46.484;13.832;2023-02-13T02:22:59;95012.47;;;-2.21;76.46
12471;BME280;36499;46.484;13.832;2023-02-13T02:25:54;95008.16;;;-2.20;76.23
12471;BME280;36499;46.484;13.832;2023-02-13T02:29:13;95010.00;;;-2.22;76.06
12471;BME280;36499;46.484;13.832;2023-02-13T02:35:17;95010.00;;;-2.22;76.67
12471;BME280;36499;46.484;13.832;2023-02-13T02:38:10;95001.31;;;-2.34;77.70
12471;BME280;36499;46.484;13.832;2023-02-13T02:40:54;95003.13;;;-2.36;77.91
12471;BME280;36499;46.484;13.832;2023-02-13T02:43:50;95002.78;;;-2.30;77.87
12471;BME280;36499;46.484;13.832;2023-02-13T02:46:32;94999.13;;;-2.26;78.81
12471;BME280;36499;46.484;13.832;2023-02-13T02:49:05;94997.16;;;-2.21;78.11
12471;BME280;36499;46.484;13.832;2023-02-13T02:52:04;94997.41;;;-2.25;77.59
12471;BME280;36499;46.484;13.832;2023-02-13T02:54:43;94993.22;;;-2.56;78.46
12471;BME280;36499;46.484;13.832;2023-02-13T02:57:31;94990.88;;;-2.59;79.29
12471;BME280;36499;46.484;13.832;2023-02-13T03:00:14;94989.88;;;-2.43;79.49
12471;BME280;36499;46.484;13.832;2023-02-13T03:02:59;94983.16;;;-2.29;79.23
12471;BME280;36499;46.484;13.832;2023-02-13T03:05:46;94979.97;;;-2.19;79.06
12471;BME280;36499;46.484;13.832;2023-02-13T03:08:32;94974.03;;;-2.19;77.85
12471;BME280;36499;46.484;13.832;2023-02-13T03:11:19;94977.69;;;-2.23;78.18
12471;BME280;36499;46.484;13.832;2023-02-13T03:14:06;94973.97;;;-2.18;78.63
12471;BME280;36499;46.484;13.832;2023-02-13T03:16:36;94976.53;;;-2.18;79.46
12471;BME280;36499;46.484;13.832;2023-02-13T03:19:37;94973.78;;;-2.15;79.64
12471;BME280;36499;46.484;13.832;2023-02-13T03:22:38;94974.25;;;-2.08;78.40
12471;BME280;36499;46.484;13.832;2023-02-13T03:25:17;94976.34;;;-2.01;78.68
12471;BME280;36499;46.484;13.832;2023-02-13T03:28:02;94965.22;;;-2.00;78.08
12471;BME280;36499;46.484;13.832;2023-02-13T03:30:59;94965.03;;;-1.97;79.10
12471;BME280;36499;46.484;13.832;2023-02-13T03:33:53;94967.69;;;-1.84;78.57
12471;BME280;36499;46.484;13.832;2023-02-13T03:36:37;94975.16;;;-1.81;78.89
12471;BME280;36499;46.484;13.832;2023-02-13T03:39:39;94976.16;;;-1.83;76.18
12471;BME280;36499;46.484;13.832;2023-02-13T03:42:17;94987.75;;;-1.92;75.46
12471;BME280;36499;46.484;13.832;2023-02-13T03:44:55;94986.66;;;-2.02;74.01
12471;BME280;36499;46.484;13.832;2023-02-13T03:47:40;94991.22;;;-2.21;76.22
12471;BME280;36499;46.484;13.832;2023-02-13T03:50:10;94999.59;;;-2.19;77.72
12471;BME280;36499;46.484;13.832;2023-02-13T03:52:45;94994.22;;;-2.15;78.14
12471;BME280;36499;46.484;13.832;2023-02-13T03:55:19;94987.19;;;-2.11;77.39
12471;BME280;36499;46.484;13.832;2023-02-13T03:58:11;94992.13;;;-2.08;77.81
12471;BME280;36499;46.484;13.832;2023-02-13T04:01:01;94994.59;;;-2.07;77.39
12471;BME280;36499;46.484;13.832;2023-02-13T04:03:38;94997.03;;;-2.05;77.04
12471;BME280;36499;46.484;13.832;2023-02-13T04:06:12;95006.09;;;-2.14;76.44
12471;BME280;36499;46.484;13.832;2023-02-13T04:08:40;95006.88;;;-2.27;77.54
12471;BME280;36499;46.484;13.832;2023-02-13T04:11:13;95004.25;;;-2.26;79.01
12471;BME280;36499;46.484;13.832;2023-02-13T04:13:46;95007.88;;;-2.30;78.84
12471;BME280;36499;46.484;13.832;2023-02-13T04:16:20;95008.53;;;-2.26;78.31
12471;BME280;36499;46.484;13.832;2023-02-13T04:18:52;95003.50;;;-2.28;77.85
12471;BME280;36499;46.484;13.832;2023-02-13T04:21:20;95008.44;;;-2.25;78.78
12471;BME280;36499;46.484;13.832;2023-02-13T04:23:47;95003.88;;;-2.20;77.85
12471;BME280;36499;46.484;13.832;2023-02-13T04:26:19;95005.44;;;-2.17;78.42
12471;BME280;36499;46.484;13.832;2023-02-13T04:28:46;95003.16;;;-2.22;77.28
12471;BME280;36499;46.484;13.832;2023-02-13T04:31:14;95002.69;;;-2.28;76.83
12471;BME280;36499;46.484;13.832;2023-02-13T04:33:41;94999.25;;;-2.43;77.79
12471;BME280;36499;46.484;13.832;2023-02-13T04:36:08;94999.19;;;-2.42;77.38
12471;BME280;36499;46.484;13.832;2023-02-13T04:38:35;94999.84;;;-2.38;78.73
12471;BME280;36499;46.484;13.832;2023-02-13T04:41:02;94996.56;;;-2.40;78.66
12471;BME280;36499;46.484;13.832;2023-02-13T04:43:31;94989.69;;;-2.39;78.22
12471;BME280;36499;46.484;13.832;2023-02-13T04:45:58;94995.16;;;-2.46;78.45
12471;BME280;36499;46.484;13.832;2023-02-13T04:48:25;94986.69;;;-2.46;78.04
12471;BME280;36499;46.484;13.832;2023-02-13T04:50:52;94990.81;;;-2.29;78.80
12471;BME280;36499;46.484;13.832;2023-02-13T04:53:19;94988.53;;;-2.34;78.45
12471;BME280;36499;46.484;13.832;2023-02-13T04:55:47;94984.91;;;-2.30;79.33
12471;BME280;36499;46.484;13.832;2023-02-13T04:58:14;94988.66;;;-2.21;79.22
12471;BME280;36499;46.484;13.832;2023-02-13T05:00:42;94981.69;;;-2.33;77.76
12471;BME280;36499;46.484;13.832;2023-02-13T05:03:12;94981.13;;;-2.38;78.29
12471;BME280;36499;46.484;13.832;2023-02-13T05:05:39;94979.78;;;-2.44;78.28
12471;BME280;36499;46.484;13.832;2023-02-13T05:08:07;94983.50;;;-2.50;78.33
12471;BME280;36499;46.484;13.832;2023-02-13T05:10:35;94975.19;;;-2.53;78.27
12471;BME280;36499;46.484;13.832;2023-02-13T05:13:02;94971.09;;;-2.56;78.73
12471;BME280;36499;46.484;13.832;2023-02-13T05:15:29;94970.06;;;-2.53;79.57
12471;BME280;36499;46.484;13.832;2023-02-13T05:17:58;94974.66;;;-2.44;79.02
12471;BME280;36499;46.484;13.832;2023-02-13T05:20:25;94976.13;;;-2.40;78.70
12471;BME280;36499;46.484;13.832;2023-02-13T05:22:53;94980.22;;;-2.37;77.99
12471;BME280;36499;46.484;13.832;2023-02-13T05:25:40;94975.19;;;-2.39;77.89
12471;BME280;36499;46.484;13.832;2023-02-13T05:28:08;94974.56;;;-2.43;77.87
12471;BME280;36499;46.484;13.832;2023-02-13T05:30:55;94976.19;;;-2.56;77.35
12471;BME280;36499;46.484;13.832;2023-02-13T05:33:24;94972.63;;;-2.53;79.48
12471;BME280;36499;46.484;13.832;2023-02-13T05:35:51;94975.94;;;-2.51;80.16
12471;BME280;36499;46.484;13.832;2023-02-13T05:38:18;94970.84;;;-2.37;80.21
12471;BME280;36499;46.484;13.832;2023-02-13T05:40:45;94971.13;;;-2.27;79.25
12471;BME280;36499;46.484;13.832;2023-02-13T05:43:12;94972.13;;;-2.16;78.98
12471;BME280;36499;46.484;13.832;2023-02-13T05:45:39;94965.94;;;-2.12;77.88
12471;BME280;36499;46.484;13.832;2023-02-13T05:48:06;94972.78;;;-2.12;78.15
12471;BME280;36499;46.484;13.832;2023-02-13T05:50:35;94964.28;;;-2.13;78.09
12471;BME280;36499;46.484;13.832;2023-02-13T05:53:03;94959.44;;;-2.31;78.38
12471;BME280;36499;46.484;13.832;2023-02-13T05:55:30;94966.72;;;-2.39;77.41
12471;BME280;36499;46.484;13.832;2023-02-13T05:57:57;94966.91;;;-2.43;76.93
12471;BME280;36499;46.484;13.832;2023-02-13T06:00:24;94968.28;;;-2.51;77.77
12471;BME280;36499;46.484;13.832;2023-02-13T06:02:52;94966.25;;;-2.46;78.63
12471;BME280;36499;46.484;13.832;2023-02-13T06:05:19;94974.19;;;-2.51;78.42
12471;BME280;36499;46.484;13.832;2023-02-13T06:07:47;94971.16;;;-2.57;79.22
12471;BME280;36499;46.484;13.832;2023-02-13T06:10:14;94975.66;;;-2.47;80.06
12471;BME280;36499;46.484;13.832;2023-02-13T06:12:42;94973.28;;;-2.35;79.71
12471;BME280;36499;46.484;13.832;2023-02-13T06:15:09;94976.78;;;-2.36;80.61
12471;BME280;36499;46.484;13.832;2023-02-13T06:17:36;94975.78;;;-2.34;80.19
12471;BME280;36499;46.484;13.832;2023-02-13T06:20:05;94981.34;;;-2.27;79.44
12471;BME280;36499;46.484;13.832;2023-02-13T06:22:32;94972.13;;;-2.16;80.06
12471;BME280;36499;46.484;13.832;2023-02-13T06:25:01;94973.34;;;-2.07;79.70
12471;BME280;36499;46.484;13.832;2023-02-13T06:27:28;94972.31;;;-2.05;77.75
12471;BME280;36499;46.484;13.832;2023-02-13T06:29:55;94978.06;;;-2.15;77.99
12471;BME280;36499;46.484;13.832;2023-02-13T06:32:22;94979.78;;;-2.16;77.40
12471;BME280;36499;46.484;13.832;2023-02-13T06:34:49;94983.63;;;-2.09;77.55
12471;BME280;36499;46.484;13.832;2023-02-13T06:37:16;94976.78;;;-2.08;77.80
12471;BME280;36499;46.484;13.832;2023-02-13T06:39:43;94980.91;;;-2.06;76.86
12471;BME280;36499;46.484;13.832;2023-02-13T06:42:12;94983.09;;;-2.14;75.83
12471;BME280;36499;46.484;13.832;2023-02-13T06:44:39;94990.28;;;-2.20;76.89
12471;BME280;36499;46.484;13.832;2023-02-13T06:47:07;94988.34;;;-2.17;77.91
12471;BME280;36499;46.484;13.832;2023-02-13T06:49:34;94990.66;;;-2.12;79.16
12471;BME280;36499;46.484;13.832;2023-02-13T06:52:01;94988.38;;;-1.88;78.75
12471;BME280;36499;46.484;13.832;2023-02-13T06:54:28;94989.94;;;-1.86;78.09
12471;BME280;36499;46.484;13.832;2023-02-13T06:56:55;94989.03;;;-1.99;77.98
12471;BME280;36499;46.484;13.832;2023-02-13T06:59:24;94991.66;;;-2.15;77.33
12471;BME280;36499;46.484;13.832;2023-02-13T07:01:51;94987.56;;;-2.17;78.23
12471;BME280;36499;46.484;13.832;2023-02-13T07:04:18;94990.47;;;-2.23;77.64
12471;BME280;36499;46.484;13.832;2023-02-13T07:06:45;94993.00;;;-2.23;77.18
12471;BME280;36499;46.484;13.832;2023-02-13T07:09:12;94996.75;;;-2.29;77.26
12471;BME280;36499;46.484;13.832;2023-02-13T07:11:39;94996.66;;;-2.27;77.14
12471;BME280;36499;46.484;13.832;2023-02-13T07:14:07;94997.69;;;-2.16;77.14
12471;BME280;36499;46.484;13.832;2023-02-13T07:16:35;95005.34;;;-2.16;77.71
12471;BME280;36499;46.484;13.832;2023-02-13T07:19:02;95005.78;;;-2.09;77.60
12471;BME280;36499;46.484;13.832;2023-02-13T07:21:29;95004.44;;;-2.01;76.73
12471;BME280;36499;46.484;13.832;2023-02-13T07:23:56;95004.25;;;-1.98;77.30
12471;BME280;36499;46.484;13.832;2023-02-13T07:26:23;95005.09;;;-1.97;77.21
12471;BME280;36499;46.484;13.832;2023-02-13T07:28:51;95011.56;;;-1.91;77.75
12471;BME280;36499;46.484;13.832;2023-02-13T07:31:18;95011.75;;;-1.80;78.11
12471;BME280;36499;46.484;13.832;2023-02-13T07:33:49;95016.97;;;-1.68;77.51
12471;BME280;36499;46.484;13.832;2023-02-13T07:36:16;95019.59;;;-1.55;77.34
12471;BME280;36499;46.484;13.832;2023-02-13T07:38:43;95023.25;;;-1.45;77.55
12471;BME280;36499;46.484;13.832;2023-02-13T07:41:10;95016.09;;;-1.40;77.88
12471;BME280;36499;46.484;13.832;2023-02-13T07:43:37;95014.25;;;-1.24;77.30
12471;BME280;36499;46.484;13.832;2023-02-13T07:46:04;95012.75;;;-1.14;77.44
12471;BME280;36499;46.484;13.832;2023-02-13T07:48:31;95015.47;;;-1.03;77.14
12471;BME280;36499;46.484;13.832;2023-02-13T07:51:02;95017.00;;;-0.86;76.62
12471;BME280;36499;46.484;13.832;2023-02-13T07:53:30;95006.94;;;-0.62;75.13
12471;BME280;36499;46.484;13.832;2023-02-13T07:55:57;95005.44;;;-0.39;73.52
12471;BME280;36499;46.484;13.832;2023-02-13T07:58:24;95005.28;;;-0.11;73.94
12471;BME280;36499;46.484;13.832;2023-02-13T08:00:52;94998.50;;;0.00;75.48
12471;BME280;36499;46.484;13.832;2023-02-13T08:03:19;94998.09;;;0.32;75.24
12471;BME280;36499;46.484;13.832;2023-02-13T08:05:47;94992.22;;;0.55;74.23
12471;BME280;36499;46.484;13.832;2023-02-13T08:08:16;94985.78;;;0.86;73.49
12471;BME280;36499;46.484;13.832;2023-02-13T08:10:43;94982.50;;;1.08;72.89
12471;BME280;36499;46.484;13.832;2023-02-13T08:13:28;94981.00;;;1.29;70.75
12471;BME280;36499;46.484;13.832;2023-02-13T08:15:55;94977.78;;;1.49;70.59
12471;BME280;36499;46.484;13.832;2023-02-13T08:18:22;94968.75;;;1.67;69.93
12471;BME280;36499;46.484;13.832;2023-02-13T08:20:49;94972.41;;;1.87;69.17
12471;BME280;36499;46.484;13.832;2023-02-13T08:23:18;94967.66;;;2.05;69.56
12471;BME280;36499;46.484;13.832;2023-02-13T08:25:45;94969.41;;;2.04;70.68
12471;BME280;36499;46.484;13.832;2023-02-13T08:28:14;94970.59;;;2.33;69.93
12471;BME280;36499;46.484;13.832;2023-02-13T08:30:41;94966.25;;;2.56;68.92
12471;BME280;36499;46.484;13.832;2023-02-13T08:33:09;94965.44;;;2.67;65.90
12471;BME280;36499;46.484;13.832;2023-02-13T08:35:36;94968.78;;;2.89;65.87
12471;BME280;36499;46.484;13.832;2023-02-13T08:38:04;94968.31;;;3.07;65.91
12471;BME280;36499;46.484;13.832;2023-02-13T08:40:33;94972.91;;;2.92;66.62
12471;BME280;36499;46.484;13.832;2023-02-13T08:43:00;94976.78;;;2.64;69.44
12471;BME280;36499;46.484;13.832;2023-02-13T08:45:28;94971.75;;;2.85;68.20
12471;BME280;36499;46.484;13.832;2023-02-13T08:47:56;94967.69;;;3.14;69.01
12471;BME280;36499;46.484;13.832;2023-02-13T08:50:24;94960.75;;;3.26;68.01
12471;BME280;36499;46.484;13.832;2023-02-13T08:52:52;94967.47;;;3.49;67.45
12471;BME280;36499;46.484;13.832;2023-02-13T08:55:19;94962.69;;;3.65;66.86
12471;BME280;36499;46.484;13.832;2023-02-13T08:57:48;94958.25;;;3.88;67.08
12471;BME280;36499;46.484;13.832;2023-02-13T09:00:15;94952.81;;;4.12;65.82
12471;BME280;36499;46.484;13.832;2023-02-13T09:02:42;94951.97;;;4.32;64.56
12471;BME280;36499;46.484;13.832;2023-02-13T09:05:09;94954.53;;;4.53;64.08
12471;BME280;36499;46.484;13.832;2023-02-13T09:07:36;94954.53;;;4.62;62.25
12471;BME280;36499;46.484;13.832;2023-02-13T09:10:05;94950.75;;;4.76;62.75
12471;BME280;36499;46.484;13.832;2023-02-13T09:12:32;94951.09;;;4.92;63.52
12471;BME280;36499;46.484;13.832;2023-02-13T09:15:01;94950.03;;;5.04;62.51
12471;BME280;36499;46.484;13.832;2023-02-13T09:17:29;94951.16;;;5.21;61.73
12471;BME280;36499;46.484;13.832;2023-02-13T09:19:56;94949.81;;;5.36;61.42
12471;BME280;36499;46.484;13.832;2023-02-13T09:22:23;94942.84;;;5.37;61.29
12471;BME280;36499;46.484;13.832;2023-02-13T09:24:50;94946.00;;;5.40;61.31
12471;BME280;36499;46.484;13.832;2023-02-13T09:27:17;94945.16;;;5.30;62.24
12471;BME280;36499;46.484;13.832;2023-02-13T09:29:44;94937.84;;;5.54;61.82
12471;BME280;36499;46.484;13.832;2023-02-13T09:32:13;94935.38;;;5.72;61.32
12471;BME280;36499;46.484;13.832;2023-02-13T09:34:40;94933.44;;;5.84;60.58
12471;BME280;36499;46.484;13.832;2023-02-13T09:37:07;94941.25;;;5.93;61.74
12471;BME280;36499;46.484;13.832;2023-02-13T09:39:34;94942.28;;;6.10;60.88
12471;BME280;36499;46.484;13.832;2023-02-13T09:42:05;94938.59;;;6.22;59.96
12471;BME280;36499;46.484;13.832;2023-02-13T09:44:42;94929.94;;;6.41;60.50
12471;BME280;36499;46.484;13.832;2023-02-13T09:47:17;94932.09;;;6.45;60.20
12471;BME280;36499;46.484;13.832;2023-02-13T09:49:51;94932.66;;;6.39;60.88
12471;BME280;36499;46.484;13.832;2023-02-13T09:52:20;94934.22;;;6.59;60.18
12471;BME280;36499;46.484;13.832;2023-02-13T09:54:47;94932.59;;;6.86;59.10
12471;BME280;36499;46.484;13.832;2023-02-13T09:57:26;94924.06;;;7.03;58.51
12471;BME280;36499;46.484;13.832;2023-02-13T10:00:03;94917.31;;;7.28;57.96
12471;BME280;36499;46.484;13.832;2023-02-13T10:02:57;94914.00;;;7.53;56.59
12471;BME280;36499;46.484;13.832;2023-02-13T10:05:49;94904.75;;;7.94;55.47
12471;BME280;36499;46.484;13.832;2023-02-13T10:08:40;94899.19;;;8.14;54.67
12471;BME280;36499;46.484;13.832;2023-02-13T10:11:30;94900.81;;;8.33;54.86
12471;BME280;36499;46.484;13.832;2023-02-13T10:14:10;94895.38;;;8.44;53.62
12471;BME280;36499;46.484;13.832;2023-02-13T10:16:45;94892.00;;;8.52;53.26
12471;BME280;36499;46.484;13.832;2023-02-13T10:19:31;94892.25;;;8.83;53.40
12471;BME280;36499;46.484;13.832;2023-02-13T10:22:08;94885.81;;;9.03;52.42
12471;BME280;36499;46.484;13.832;2023-02-13T10:24:43;94888.50;;;9.27;51.50
12471;BME280;36499;46.484;13.832;2023-02-13T10:27:21;94879.91;;;9.51;51.51
12471;BME280;36499;46.484;13.832;2023-02-13T10:29:54;94876.81;;;9.80;51.12
12471;BME280;36499;46.484;13.832;2023-02-13T10:32:46;94872.22;;;10.06;49.95
12471;BME280;36499;46.484;13.832;2023-02-13T10:35:31;94874.22;;;10.59;50.17
12471;BME280;36499;46.484;13.832;2023-02-13T10:37:59;94859.41;;;10.98;47.75
12471;BME280;36499;46.484;13.832;2023-02-13T10:40:37;94852.81;;;11.56;46.08
12471;BME280;36499;46.484;13.832;2023-02-13T10:43:08;94846.41;;;12.04;45.12
12471;BME280;36499;46.484;13.832;2023-02-13T10:46:05;94846.44;;;11.81;45.44
12471;BME280;36499;46.484;13.832;2023-02-13T10:49:01;94845.25;;;11.61;43.92
12471;BME280;36499;46.484;13.832;2023-02-13T10:51:40;94843.47;;;11.16;45.14
12471;BME280;36499;46.484;13.832;2023-02-13T10:54:39;94833.50;;;10.89;45.40
12471;BME280;36499;46.484;13.832;2023-02-13T10:57:23;94828.75;;;10.92;46.02
12471;BME280;36499;46.484;13.832;2023-02-13T11:00:07;94825.47;;;10.98;46.92
12471;BME280;36499;46.484;13.832;2023-02-13T11:02:37;94828.19;;;11.05;45.29
12471;BME280;36499;46.484;13.832;2023-02-13T11:05:16;94823.28;;;10.79;45.65
12471;BME280;36499;46.484;13.832;2023-02-13T11:07:46;94821.31;;;10.81;46.16
12471;BME280;36499;46.484;13.832;2023-02-13T11:10:17;94822.72;;;10.92;45.70
12471;BME280;36499;46.484;13.832;2023-02-13T11:12:45;94824.53;;;10.61;46.17
12471;BME280;36499;46.484;13.832;2023-02-13T11:15:26;94822.53;;;10.63;47.14
12471;BME280;36499;46.484;13.832;2023-02-13T11:17:56;94815.16;;;10.74;46.65
12471;BME280;36499;46.484;13.832;2023-02-13T11:20:34;94815.19;;;10.97;46.29
12471;BME280;36499;46.484;13.832;2023-02-13T11:23:37;94813.69;;;11.02;45.44
12471;BME280;36499;46.484;13.832;2023-02-13T11:26:09;94807.69;;;11.25;45.39
12471;BME280;36499;46.484;13.832;2023-02-13T11:28:46;94806.84;;;11.47;44.93
12471;BME280;36499;46.484;13.832;2023-02-13T11:31:25;94799.28;;;11.37;45.55
12471;BME280;36499;46.484;13.832;2023-02-13T11:33:53;94799.19;;;11.45;45.20
12471;BME280;36499;46.484;13.832;2023-02-13T11:36:27;94788.81;;;11.60;45.37
12471;BME280;36499;46.484;13.832;2023-02-13T11:39:02;94788.69;;;11.68;44.70
12471;BME280;36499;46.484;13.832;2023-02-13T11:41:38;94785.47;;;11.66;44.34
12471;BME280;36499;46.484;13.832;2023-02-13T11:44:21;94786.28;;;11.67;43.89
12471;BME280;36499;46.484;13.832;2023-02-13T11:46:53;94783.28;;;11.78;44.07
12471;BME280;36499;46.484;13.832;2023-02-13T11:49:24;94787.06;;;11.90;44.04
12471;BME280;36499;46.484;13.832;2023-02-13T11:51:53;94784.47;;;11.90;44.43
12471;BME280;36499;46.484;13.832;2023-02-13T11:54:31;94787.97;;;11.82;44.39
12471;BME280;36499;46.484;13.832;2023-02-13T11:57:02;94783.63;;;11.75;43.63
12471;BME280;36499;46.484;13.832;2023-02-13T11:59:37;94775.06;;;11.95;43.92
12471;BME280;36499;46.484;13.832;2023-02-13T12:02:15;94782.38;;;12.00;44.28
12471;BME280;36499;46.484;13.832;2023-02-13T12:04:45;94780.16;;;12.12;43.46
12471;BME280;36499;46.484;13.832;2023-02-13T12:07:19;94776.72;;;11.96;43.89
12471;BME280;36499;46.484;13.832;2023-02-13T12:09:56;94780.22;;;11.89;43.10
12471;BME280;36499;46.484;13.832;2023-02-13T12:12:33;94769.97;;;12.02;44.55
12471;BME280;36499;46.484;13.832;2023-02-13T12:15:14;94772.66;;;12.09;42.55
12471;BME280;36499;46.484;13.832;2023-02-13T12:17:44;94770.03;;;12.23;44.04
12471;BME280;36499;46.484;13.832;2023-02-13T12:20:14;94761.75;;;12.34;43.02
12471;BME280;36499;46.484;13.832;2023-02-13T12:23:00;94750.00;;;12.45;43.21
12471;BME280;36499;46.484;13.832;2023-02-13T12:25:54;94750.75;;;12.39;43.20
12471;BME280;36499;46.484;13.832;2023-02-13T12:28:43;94743.94;;;12.44;43.08
12471;BME280;36499;46.484;13.832;2023-02-13T12:31:52;94748.66;;;12.34;43.11
12471;BME280;36499;46.484;13.832;2023-02-13T12:34:56;94745.59;;;12.45;42.46
12471;BME280;36499;46.484;13.832;2023-02-13T12:37:59;94740.88;;;12.56;42.55
12471;BME280;36499;46.484;13.832;2023-02-13T12:44:01;94731.97;;;12.71;42.83
12471;BME280;36499;46.484;13.832;2023-02-13T12:46:39;94735.78;;;12.69;41.82
12471;BME280;36499;46.484;13.832;2023-02-13T12:49:38;94722.78;;;12.75;42.40
12471;BME280;36499;46.484;13.832;2023-02-13T12:52:31;94728.88;;;12.61;42.30
12471;BME280;36499;46.484;13.832;2023-02-13T12:55:21;94726.84;;;12.99;41.54
12471;BME280;36499;46.484;13.832;2023-02-13T12:58:20;94721.78;;;12.76;42.18
12471;BME280;36499;46.484;13.832;2023-02-13T13:01:06;94715.66;;;12.69;41.87
12471;BME280;36499;46.484;13.832;2023-02-13T13:03:50;94718.91;;;12.71;43.09
12471;BME280;36499;46.484;13.832;2023-02-13T13:06:55;94714.41;;;12.65;42.06
12471;BME280;36499;46.484;13.832;2023-02-13T13:09:53;94718.06;;;12.85;42.07
12471;BME280;36499;46.484;13.832;2023-02-13T13:12:35;94708.75;;;12.83;42.21
12471;BME280;36499;46.484;13.832;2023-02-13T13:15:14;94712.78;;;13.00;42.00
12471;BME280;36499;46.484;13.832;2023-02-13T13:18:01;94715.06;;;12.88;42.26
12471;BME280;36499;46.484;13.832;2023-02-13T13:20:57;94712.44;;;12.88;41.65
12471;BME280;36499;46.484;13.832;2023-02-13T13:23:33;94707.97;;;13.04;41.57
12471;BME280;36499;46.484;13.832;2023-02-13T13:26:19;94717.97;;;13.15;41.48
12471;BME280;36499;46.484;13.832;2023-02-13T13:28:51;94707.09;;;13.18;41.40
12471;BME280;36499;46.484;13.832;2023-02-13T13:31:21;94717.41;;;13.19;41.73
12471;BME280;36499;46.484;13.832;2023-02-13T13:33:57;94706.28;;;12.96;41.50